Air Resources Laboratory banner image
Air Resources Laboratory web site National Oceanic and Atmospheric Administration (NOAA)

va metar


KAKQ 211954Z AUTO 28008KT 10SM CLR 12/M01 A3013 RMK AO2 SLP203 T01221011=
KAVC 211955Z AUTO 25004KT 10SM CLR 12/M02 A3020 RMK AO2 T01171021=
KBCB 211955Z AUTO 29010G15KT 250V310 10SM CLR 09/M03 A3020 RMK AO2 T00851026=
KCHO 211953Z 21007KT 10SM CLR 14/M04 A3008 RMK AO2 SLP188 T01391039=
KCJR 211955Z AUTO 00000KT 10SM CLR 13/M04 A3010 RMK AO2 T01281045=
KCPK 211955Z AUTO 25007KT 10SM CLR 12/M02 A3012 RMK AO2 T01211017=
KDAA 211956Z AUTO 27008KT 10SM CLR 12/00 A3009 RMK AO2 SLP193 T01181004 TSNO $=
KDAN 211953Z AUTO 23008KT 10SM CLR 13/M04 A3016 RMK AO2 SLP208 T01331039=
KDCA 211952Z 26006KT 10SM FEW070 13/M03 A3010 RMK AO2 SLP191 T01281028=
KEZF 211955Z AUTO 26008KT 10SM CLR 13/M02 A3009 RMK AO2 T01261017=
KFAF 211956Z AUTO 27007KT 10SM CLR 12/00 A3010 RMK AO2 SLP196 T01211004 $=
KFKN 211955Z AUTO 28007KT 10SM CLR 12/M01 A3014 RMK AO2 T01211011=
KFVX 211955Z AUTO 25004KT 10SM CLR 13/M03 A3011 RMK AO2 T01291032=
KHEF 211956Z 26006KT 10SM CLR 12/M03 A3009 RMK AO2 SLP203 T01221028 PNO $=
KHLX 211955Z AUTO 29012KT 10SM CLR 08/M03 A3016 RMK AO2 T00761029=
KHSP 211955Z AUTO 30015G23KT 10SM CLR 05/M01 A3008 RMK AO2 T00461007=
KIAD 211952Z 32011KT 10SM FEW085 12/M02 A3009 RMK AO2 SLP191 T01171022=
KJYO 211955Z AUTO 34018G23KT 10SM CLR 11/00 A3011 RMK AO2=
KLFI 211956Z AUTO 27010KT 10SM CLR 12/00 A3012 RMK AO2 SLP207 T01190000 $=
KLKU 211955Z AUTO 25005KT 10SM CLR 12/M04 A3014 RMK AO2 T01221040=
KLNP 211950Z AUTO 30006KT 10SM CLR 08/M01 A3024 RMK AO2=
KLYH 211954Z 26007KT 220V290 10SM CLR 12/M04 A3013 RMK AO2 SLP206 T01221039=
KMFV 211955Z AUTO 25009KT 10SM CLR 11/01 A3011 RMK AO2 T01050010=
KMKJ 211955Z AUTO 25009KT 10SM CLR 09/00 A3022 RMK AO2 T00860002=
KMTV 211956Z AUTO 32004KT 10SM CLR 15/M03 A3018 RMK AO2=
KNGU 211959Z 26009G16KT 10SM CLR 12/M01 A3013 RMK AO2 SLP204 T01171006=
KNTU 211956Z 26008KT 10SM CLR 12/00 A3011 RMK AO2 SLP197 T01170000=
KNYG 211956Z AUTO 30012KT 10SM CLR 13/M03 A3010 RMK AO2 SLP194 T01281028 $=
KOFP 211954Z AUTO 25007KT 10SM CLR 13/M04 A3012 RMK AO2 SLP201 T01281039=
KOKV 211955Z AUTO 31015KT 10SM BKN050 07/M01 A3013 RMK AO2=
KOMH 211955Z AUTO 24007KT 10SM CLR 12/M03 A3009 RMK AO2=
KORF 211951Z 26005KT 10SM CLR 12/00 A3011 RMK AO2 SLP196 T01220000=
KPHF 211954Z 27009KT 10SM CLR 12/M01 A3012 RMK AO2 SLP201 T01171006=
KPSK 211955Z AUTO 30013G17KT 10SM CLR 10/M02 A3018 RMK AO2 T00951019=
KPTB 211955Z AUTO 25008KT 10SM CLR 13/M04 A3013 RMK AO2 T01261037=
KRIC 211954Z 26009KT 10SM FEW080 13/M03 A3012 RMK AO2 SLP204 T01281028 $=
KROA 211954Z 31015G21KT 10SM CLR 12/M03 A3017 RMK AO2 SLP218 T01171033=
KSFQ 211955Z AUTO 25008KT 10SM CLR 13/00 A3014 RMK AO2 T01251002=
KSHD 211955Z AUTO 25008KT 10SM CLR 12/M03 A3011 RMK AO2 T01191030=
KVJI 211955Z AUTO 27006KT 10SM CLR 08/M03 A3024 RMK AO2 T00811030=
KWAL 211954Z AUTO 26007G16KT 10SM CLR 11/M01 A3010 RMK AO2 SLP189 T01061006=